Beaumont, CA (92223)

9:26 PM PDT on September 16, 2014 (GMT -0700)
Beaumont, CA | Change Station
CLOSE
Current Station
Personal Weather Station
Location: Beaumont, CA
Elevation: 2582 ft
Nearby Weather Stations
Active Advisory: Areal Flood Warning, Areal Flood Advisory Active Notice: Record Report

Elev 2582 ft 33.95 °N, 117.00 °W | Updated 2 minutes ago

Partly Cloudy
Partly Cloudy
79.9 °F
Feels Like 82 °F
N
2.2
Wind Variable Wind from ESE

Today
High -- | Low -- °F
--% Chance of Precip.
Yesterday
High -- | Low -- °F
Precip. -- in
6:31 AM 6:52 PM
Last Quarter, 39% visible
Pressure 29.77 in
Visibility 10.0 miles
Clouds Clear
Heat Index 82 °F
Dew Point 65 °F
Humidity 60%
Rainfall 0.00 in
Snow Depth 1 in , 0 in , 1 in
UV 0 out of 12
Pollen 6.80 out of 12
Ozone Good
PM2.5 Moderate
Flu Activity Not available.
METAR KRIV 170358Z AUTO 00000KT 10SM CLR 29/14 A2982 RMK AO2 SLP080 T02860140

More Conditions Fewer Conditions

Pressure 29.77 in
Visibility 10.0 miles
Clouds Clear
Heat Index 82 °F
Dew Point 65 °F
Humidity 60%
Rainfall 0.00 in
Snow Depth 1 in , 0 in , 1 in
UV 0 out of 12
Pollen 6.80 out of 12
Ozone Good
PM2.5 Moderate
Flu Activity Not available.
METAR KRIV 170358Z AUTO 00000KT 10SM CLR 29/14 A2982 RMK AO2 SLP080 T02860140

More Conditions Fewer Conditions

10-Day Weather Forecast

Almanac

Astronomy

Sep. 16, 2014 Rise Set
Actual Time 6:31 AM PDT 6:52 PM PDT
Civil Twilight 6:06 AM PDT 7:17 PM PDT
Nautical Twilight 5:37 AM PDT 7:47 PM PDT
Astronomical Twilight 5:07 AM PDT 8:16 PM PDT
Moon No Moon Rise 2:08 PM PDT (9/16)
Length of Visible Light 13h 11m
Length of Day
12h 21m
Tomorrow will be 2m 5s shorter.
Last Quarter, 39% of the Moon is Illuminated
Sep 17
Last Quarter
Sep 24
New
Oct 1
First Quarter
Oct 8
Full
Oct 15
Last Quarter

Today's Extremes

State Highs State Lows

Community

WunderPhotos

Upload Photos

1,753,965 photos uploaded!

Nearby

Air Quality

  Air Quality AQ Index Pollutant
Yesterday Moderate
PM2.5
Yesterday Good
OZONE
Current Moderate
PM2.5
Current Good
OZONE
Wednesday Moderate
OZONE
Wednesday Good
PM10
Wednesday Good
CO
Wednesday Good
NO2

Snow Depth

Station Depth Elevation
CSS Lab 2 in 6900 ft
Adin Mountain 1 in 6200 ft
Tahoe City Cross 0 in 6750 ft
Summit Meadow 1 in 9122 ft
Spratt Creek 0 in 6200 ft

Earthquake Activity

City Distance Mag. Time & Date
La Quinta, California 43 miles 2.7 8:59 PM PDT
2014-09-15
Inyokern, California 147 miles 3.2 5:56 PM PDT
2014-09-14
San Jacinto, California 11 miles 3.0 3:16 PM PDT
2014-09-14
Minimum magnitude displayed is 2.5.

Coastal Water Temperatures

Place Temperature
No Stations Reporting

Nearby Weather Stations